Time;durP1;ratioP1;P1;durP2;ratioP2;P2;SDS_P1;SDS_P2;PMS_P1;PMS_P2;Temp;Humidity;BMP_temperature;BMP_pressure;BME280_temperature;BME280_humidity;BME280_pressure;Samples;Min_cycle;Max_cycle;Signal;HPM_P1;HPM_P2
2022/01/30 00:00:31;;;;;;;25.20;5.40;;;;;;;5.62;79.02;102629.69;5024466;28;20032;-61
2022/01/30 00:02:57;;;;;;;34.40;5.95;;;;;;;5.57;78.98;102636.63;5023240;28;20021;-61
2022/01/30 00:05:22;;;;;;;27.30;5.18;;;;;;;5.54;79.13;102643.25;5023628;28;20032;-61
2022/01/30 00:07:48;;;;;;;27.02;5.47;;;;;;;5.51;78.97;102640.81;5024969;28;20030;-61
2022/01/30 00:10:14;;;;;;;32.75;5.60;;;;;;;5.47;79.10;102637.56;5024080;28;20032;-61
2022/01/30 00:12:51;;;;;;;27.20;5.53;;;;;;;5.42;79.42;102639.00;5024887;28;20442;-61
2022/01/30 00:15:18;;;;;;;29.80;5.32;;;;;;;5.40;79.43;102638.31;5024331;28;20062;-61
2022/01/30 00:17:50;;;;;;;33.72;5.22;;;;;;;5.46;78.61;102635.84;5024271;28;20030;-61
2022/01/30 00:20:21;;;;;;;25.92;5.32;;;;;;;5.43;79.21;102635.31;5024897;28;20033;-61
2022/01/30 00:23:09;;;;;;;29.75;5.38;;;;;;;5.41;79.04;102637.31;5023333;28;20108;-61
2022/01/30 00:25:44;;;;;;;29.90;5.45;;;;;;;5.41;79.23;102646.34;5004636;28;20045;-61
2022/01/30 00:28:12;;;;;;;27.52;5.00;;;;;;;5.34;79.49;102649.84;5004866;28;20488;-61
2022/01/30 00:30:37;;;;;;;30.90;4.78;;;;;;;5.34;79.67;102652.56;5004845;28;20559;-61
2022/01/30 00:33:03;;;;;;;33.65;6.57;;;;;;;5.30;79.79;102659.31;5004110;28;20044;-61
2022/01/30 00:35:29;;;;;;;23.30;4.75;;;;;;;5.25;79.99;102657.03;5008812;28;20193;-61
2022/01/30 00:37:55;;;;;;;27.23;5.45;;;;;;;5.21;80.02;102652.91;5024325;28;20436;-61
2022/01/30 00:40:21;;;;;;;26.58;4.43;;;;;;;5.17;80.25;102656.94;5024543;28;20029;-61
2022/01/30 00:42:46;;;;;;;28.15;6.43;;;;;;;5.13;80.25;102645.50;5023933;28;20033;-61
2022/01/30 00:45:11;;;;;;;27.65;5.30;;;;;;;5.15;80.38;102656.25;5022549;28;20026;-61
2022/01/30 00:47:37;;;;;;;37.35;5.85;;;;;;;5.13;80.11;102661.84;5023873;28;20026;-61
2022/01/30 00:50:03;;;;;;;27.35;4.97;;;;;;;5.11;80.83;102654.81;5023154;28;20026;-61
2022/01/30 00:52:28;;;;;;;31.17;5.60;;;;;;;5.10;80.63;102653.97;5023201;28;20313;-61
2022/01/30 00:54:53;;;;;;;27.45;5.20;;;;;;;5.14;80.51;102657.25;5023912;28;21187;-61
2022/01/30 00:57:18;;;;;;;29.98;5.18;;;;;;;5.10;80.75;102664.00;5023437;28;20036;-61
2022/01/30 00:59:44;;;;;;;26.80;5.88;;;;;;;5.12;80.58;102665.59;5023332;28;20550;-61
2022/01/30 01:02:09;;;;;;;32.63;6.18;;;;;;;5.12;80.65;102670.13;5022687;28;20026;-61
2022/01/30 01:04:34;;;;;;;26.85;4.90;;;;;;;5.09;81.17;102671.31;5024189;28;20026;-61
2022/01/30 01:07:00;;;;;;;28.52;5.05;;;;;;;5.07;80.71;102669.72;5023088;28;20026;-61
2022/01/30 01:09:33;;;;;;;32.30;4.95;;;;;;;5.03;81.17;102671.06;5024168;28;20108;-61
2022/01/30 01:25:38;;;;;;;34.72;5.45;;;;;;;4.97;80.60;102677.97;5003462;28;20087;-61
2022/01/30 01:28:04;;;;;;;25.30;6.38;;;;;;;4.94;80.79;102678.25;5004348;28;20030;-61
2022/01/30 01:30:29;;;;;;;30.85;5.57;;;;;;;4.95;80.37;102686.25;5017213;28;20072;-61
2022/01/30 01:32:54;;;;;;;29.60;5.18;;;;;;;4.90;80.65;102679.56;5022743;28;20114;-61
2022/01/30 01:35:20;;;;;;;25.25;5.25;;;;;;;4.86;80.85;102686.28;5023709;28;20080;-61
2022/01/30 01:37:51;;;;;;;32.40;5.28;;;;;;;4.81;80.79;102694.91;5023619;28;20369;-61
2022/01/30 01:40:17;;;;;;;29.52;5.18;;;;;;;4.78;81.07;102691.63;5023684;28;20195;-61
2022/01/30 01:42:43;;;;;;;26.73;4.50;;;;;;;4.82;80.74;102685.75;5023307;28;20425;-61
2022/01/30 01:45:09;;;;;;;28.95;5.32;;;;;;;4.81;80.57;102683.16;5023144;28;20334;-61
2022/01/30 01:47:34;;;;;;;26.73;4.75;;;;;;;4.79;80.63;102690.63;5022303;28;20104;-61
2022/01/30 01:49:59;;;;;;;27.15;5.40;;;;;;;4.75;80.84;102705.53;5023584;28;20079;-61
2022/01/30 01:52:26;;;;;;;27.27;5.20;;;;;;;4.76;80.72;102707.25;5023582;28;20064;-61
2022/01/30 01:54:57;;;;;;;27.15;5.53;;;;;;;4.77;80.66;102706.25;5025257;28;20025;-61
2022/01/30 01:57:24;;;;;;;27.60;5.07;;;;;;;4.76;80.52;102701.81;5027176;28;20456;-61
2022/01/30 01:59:50;;;;;;;30.00;5.30;;;;;;;4.73;80.63;102704.84;5026871;28;20091;-61
2022/01/30 02:02:16;;;;;;;35.47;5.30;;;;;;;4.69;80.69;102705.13;5026846;28;20022;-61
2022/01/30 02:04:42;;;;;;;29.65;5.10;;;;;;;4.68;80.74;102692.53;5027364;28;20025;-61
2022/01/30 02:09:40;;;;;;;30.98;4.75;;;;;;;4.63;80.87;102688.53;5026381;28;20513;-61
2022/01/30 02:12:06;;;;;;;27.05;4.97;;;;;;;4.58;81.47;102690.81;5025848;28;20030;-61
2022/01/30 02:14:55;;;;;;;25.73;5.30;;;;;;;4.57;81.27;102683.66;5026834;28;20373;-61
2022/01/30 02:25:39;;;;;;;31.67;5.97;;;;;;;4.39;81.84;102695.28;5007561;28;20041;-61
2022/01/30 02:28:10;;;;;;;27.42;4.85;;;;;;;4.37;82.21;102691.84;5007286;28;20101;-61
2022/01/30 02:30:39;;;;;;;28.35;5.03;;;;;;;4.37;82.38;102696.44;5007068;28;20030;-61
2022/01/30 02:33:04;;;;;;;28.85;5.43;;;;;;;4.39;82.58;102689.84;5006862;28;20519;-61
2022/01/30 02:35:30;;;;;;;32.63;5.47;;;;;;;4.39;82.35;102694.41;5023518;28;20033;-61
2022/01/30 02:37:57;;;;;;;27.85;5.22;;;;;;;4.36;82.42;102694.72;5026435;28;20540;-61
2022/01/30 02:40:23;;;;;;;25.52;4.93;;;;;;;4.36;82.90;102689.28;5026617;28;20116;-61
2022/01/30 02:42:51;;;;;;;27.30;5.63;;;;;;;4.37;82.87;102686.41;5026523;28;20093;-61
2022/01/30 02:45:19;;;;;;;30.52;5.38;;;;;;;4.39;82.49;102680.81;5025738;28;20847;-61
2022/01/30 02:50:35;;;;;;;26.45;4.50;;;;;;;4.36;82.54;102662.94;5025771;28;20037;-61
2022/01/30 02:53:03;;;;;;;32.97;6.22;;;;;;;4.38;82.64;102665.50;5026430;28;20025;-61
2022/01/30 02:55:29;;;;;;;27.55;4.35;;;;;;;4.43;82.54;102679.53;5025861;28;20072;-61
2022/01/30 02:57:54;;;;;;;30.13;4.63;;;;;;;4.46;82.59;102683.81;5025623;28;20037;-61
2022/01/30 03:00:20;;;;;;;29.50;4.88;;;;;;;4.45;82.73;102691.13;5026163;28;20022;-61
2022/01/30 03:02:45;;;;;;;30.60;4.97;;;;;;;4.46;82.38;102690.13;5025448;28;20030;-61
2022/01/30 03:05:10;;;;;;;25.90;5.05;;;;;;;4.46;82.70;102700.13;5024214;28;20025;-61
2022/01/30 03:07:36;;;;;;;28.77;5.25;;;;;;;4.48;82.64;102698.16;5026362;28;20061;-61
2022/01/30 03:10:01;;;;;;;27.92;5.10;;;;;;;4.43;82.81;102701.31;5025079;28;20033;-61
2022/01/30 03:12:26;;;;;;;26.13;5.15;;;;;;;4.48;82.11;102700.88;5026156;28;20029;-61
2022/01/30 03:14:52;;;;;;;30.95;5.55;;;;;;;4.52;82.38;102710.47;5025358;28;20075;-61
2022/01/30 03:17:17;;;;;;;26.13;5.13;;;;;;;4.46;82.20;102711.91;5025160;28;20064;-61
2022/01/30 03:19:42;;;;;;;26.55;5.65;;;;;;;4.47;82.37;102720.91;5025740;28;20021;-61
2022/01/30 03:22:08;;;;;;;25.95;5.40;;;;;;;4.49;82.27;102716.19;5025476;28;20040;-61
2022/01/30 03:24:36;;;;;;;29.00;5.57;;;;;;;4.54;82.48;102720.19;5039059;28;20067;-60
2022/01/30 03:27:06;;;;;;;24.80;5.35;;;;;;;4.63;82.01;102726.63;5045413;28;20479;-60
2022/01/30 03:29:32;;;;;;;28.20;4.88;;;;;;;4.69;81.47;102734.19;5045128;28;20068;-61
2022/01/30 03:31:58;;;;;;;26.63;4.53;;;;;;;4.77;81.31;102742.50;5044744;28;20122;-60
2022/01/30 03:34:23;;;;;;;23.58;4.88;;;;;;;4.84;80.83;102740.03;5036053;28;20030;-61
2022/01/30 03:36:49;;;;;;;35.50;5.25;;;;;;;4.88;80.77;102741.47;5025638;28;20037;-60
2022/01/30 03:39:14;;;;;;;30.80;5.03;;;;;;;4.91;80.75;102744.75;5025599;28;20060;-61
2022/01/30 03:41:40;;;;;;;27.33;5.22;;;;;;;4.93;80.71;102756.38;5025363;28;20109;-61
2022/01/30 03:44:05;;;;;;;25.10;4.00;;;;;;;4.91;80.16;102762.94;5026058;28;20036;-60
2022/01/30 03:46:30;;;;;;;30.25;5.85;;;;;;;4.86;80.83;102770.69;5023896;28;20048;-61
2022/01/30 03:48:56;;;;;;;22.00;4.28;;;;;;;4.79;80.76;102770.44;5025363;28;20047;-60
2022/01/30 03:51:21;;;;;;;27.13;4.20;;;;;;;4.78;80.53;102776.03;5025426;28;20037;-61
2022/01/30 03:53:46;;;;;;;22.27;4.72;;;;;;;4.76;80.74;102772.56;5024982;28;20029;-60
2022/01/30 03:56:11;;;;;;;24.25;4.25;;;;;;;4.74;80.60;102778.16;5025107;28;20523;-60
2022/01/30 03:58:37;;;;;;;28.73;3.92;;;;;;;4.72;80.51;102785.63;5024392;28;20032;-60
2022/01/30 04:01:03;;;;;;;22.38;5.78;;;;;;;4.78;79.79;102771.44;5024679;28;20388;-60
2022/01/30 04:03:28;;;;;;;22.73;3.45;;;;;;;4.79;79.62;102791.34;5023861;28;20036;-61
2022/01/30 04:05:53;;;;;;;23.95;4.10;;;;;;;4.75;79.47;102798.06;5025490;28;20818;-60
2022/01/30 04:08:19;;;;;;;21.13;3.85;;;;;;;4.69;78.95;102792.22;5025174;28;20037;-61
2022/01/30 04:10:45;;;;;;;18.85;4.00;;;;;;;4.58;79.37;102797.81;5023985;28;20464;-60
2022/01/30 04:13:10;;;;;;;23.02;3.72;;;;;;;4.54;79.69;102793.66;5024658;28;20365;-60
2022/01/30 04:15:36;;;;;;;18.77;3.00;;;;;;;4.53;79.26;102802.81;5024398;28;20040;-60
2022/01/30 04:18:02;;;;;;;21.33;4.13;;;;;;;4.56;79.80;102796.22;5023600;28;20030;-60
2022/01/30 04:20:28;;;;;;;18.48;3.97;;;;;;;4.59;78.50;102794.06;5024430;28;20604;-60
2022/01/30 04:22:54;;;;;;;22.15;3.28;;;;;;;4.56;78.83;102796.22;5022821;28;20393;-60
2022/01/30 04:25:19;;;;;;;19.25;3.50;;;;;;;4.55;78.44;102789.06;5035312;28;20045;-60
2022/01/30 04:27:45;;;;;;;19.98;3.55;;;;;;;4.51;78.68;102796.69;5024589;28;20384;-60
2022/01/30 04:30:11;;;;;;;14.00;3.42;;;;;;;4.50;79.02;102797.66;5024324;28;20311;-60
2022/01/30 04:32:41;;;;;;;12.45;2.70;;;;;;;4.48;79.30;102799.66;5024650;28;20021;-61
2022/01/30 04:35:16;;;;;;;21.25;3.17;;;;;;;4.46;79.37;102795.34;5024664;28;20036;-60
2022/01/30 04:38:03;;;;;;;14.77;3.63;;;;;;;4.44;79.18;102790.06;5024701;28;20021;-60
2022/01/30 05:00:06;;;;;;;16.80;3.70;;;;;;;4.26;78.73;102805.34;5001389;28;20151;-60
2022/01/30 05:02:46;;;;;;;15.38;2.72;;;;;;;4.20;78.62;102817.66;5016198;28;20191;-60
2022/01/30 05:05:42;;;;;;;14.73;2.90;;;;;;;4.15;78.80;102822.66;5024324;28;20111;-60
2022/01/30 05:08:09;;;;;;;13.90;3.35;;;;;;;4.10;78.99;102831.25;5024576;28;20481;-60
2022/01/30 05:10:34;;;;;;;10.65;2.60;;;;;;;4.06;79.10;102834.41;5024508;28;20112;-60
2022/01/30 05:13:02;;;;;;;17.83;3.35;;;;;;;4.03;79.04;102840.97;5023979;28;20155;-60
2022/01/30 05:15:29;;;;;;;16.90;3.25;;;;;;;3.98;79.76;102843.25;5022562;28;20694;-60
2022/01/30 05:17:55;;;;;;;21.13;3.72;;;;;;;4.02;79.39;102841.97;5023208;28;20033;-60
2022/01/30 05:20:20;;;;;;;17.33;3.38;;;;;;;4.02;79.58;102835.69;5024000;28;20091;-60
2022/01/30 05:22:46;;;;;;;20.58;3.28;;;;;;;4.01;79.52;102844.84;5022671;28;20021;-61
2022/01/30 05:25:12;;;;;;;19.02;3.03;;;;;;;3.96;79.90;102834.38;5023554;28;20033;-60
2022/01/30 05:27:38;;;;;;;17.70;6.25;;;;;;;3.97;79.95;102838.81;5023665;28;20429;-60
2022/01/30 05:30:05;;;;;;;25.73;6.85;;;;;;;3.93;80.04;102845.53;5026887;28;20036;-60
2022/01/30 05:32:31;;;;;;;19.15;6.75;;;;;;;3.91;80.37;102844.81;5027418;28;20067;-60
2022/01/30 05:34:56;;;;;;;20.85;3.40;;;;;;;3.93;80.09;102839.22;5027599;28;20120;-60
2022/01/30 05:37:22;;;;;;;20.52;3.85;;;;;;;3.88;80.26;102837.78;5028020;28;20037;-60
2022/01/30 05:39:48;;;;;;;20.60;3.25;;;;;;;3.87;80.18;102840.63;5026657;28;20033;-60
2022/01/30 05:42:14;;;;;;;20.52;3.22;;;;;;;3.83;80.47;102844.63;5020179;28;20040;-60
2022/01/30 05:45:00;;;;;;;20.67;3.50;;;;;;;3.88;80.18;102845.06;5027181;28;20101;-61
2022/01/30 05:47:33;;;;;;;15.50;3.42;;;;;;;3.85;80.15;102848.06;5027126;28;20033;-60
2022/01/30 05:49:59;;;;;;;19.00;3.85;;;;;;;3.81;79.91;102843.91;5027702;28;20044;-60
2022/01/30 05:52:24;;;;;;;15.00;2.83;;;;;;;3.77;80.46;102839.75;5025538;28;20472;-60
2022/01/30 05:54:50;;;;;;;18.95;3.83;;;;;;;3.72;80.16;102858.31;5025856;28;20061;-60
2022/01/30 05:57:15;;;;;;;19.52;3.15;;;;;;;3.68;79.95;102846.84;5027605;28;20040;-60
2022/01/30 05:59:41;;;;;;;16.67;3.92;;;;;;;3.64;80.08;102853.56;5026600;28;20427;-60
2022/01/30 06:02:06;;;;;;;22.55;3.70;;;;;;;3.59;79.87;102859.38;5027009;28;20191;-61
2022/01/30 06:04:31;;;;;;;14.95;3.03;;;;;;;3.59;79.74;102864.81;5025761;28;20037;-60
2022/01/30 06:06:58;;;;;;;21.88;4.38;;;;;;;3.63;79.54;102871.72;5026645;28;20802;-61
2022/01/30 06:09:23;;;;;;;20.70;3.40;;;;;;;3.66;79.25;102872.47;5027534;28;20460;-60
2022/01/30 06:11:49;;;;;;;19.02;4.00;;;;;;;3.69;79.28;102874.88;5027022;28;20028;-60
2022/01/30 06:14:16;;;;;;;24.42;3.63;;;;;;;3.73;78.56;102876.34;5027225;28;20017;-60
2022/01/30 06:16:42;;;;;;;24.35;3.70;;;;;;;3.77;78.90;102877.78;5024078;28;20108;-61
2022/01/30 06:19:08;;;;;;;18.98;3.78;;;;;;;3.81;78.48;102880.09;5028105;28;20112;-60
2022/01/30 06:21:33;;;;;;;15.02;4.00;;;;;;;3.88;78.51;102878.53;5027581;28;20040;-60
2022/01/30 06:23:58;;;;;;;20.83;3.67;;;;;;;3.91;78.80;102869.28;5016699;28;20045;-60
2022/01/30 06:26:24;;;;;;;19.77;3.30;;;;;;;3.93;79.30;102864.53;5006300;28;20037;-60
2022/01/30 06:28:49;;;;;;;23.33;5.20;;;;;;;3.94;78.81;102868.13;5020281;28;20022;-60
2022/01/30 06:31:15;;;;;;;19.27;5.82;;;;;;;3.95;79.17;102867.13;5026223;28;20094;-60
2022/01/30 06:33:40;;;;;;;20.42;4.65;;;;;;;3.94;78.93;102866.25;5026404;28;20025;-60
2022/01/30 06:36:06;;;;;;;20.33;4.03;;;;;;;3.98;78.71;102865.00;5027446;28;20033;-60
2022/01/30 06:38:31;;;;;;;22.38;5.50;;;;;;;4.00;79.01;102879.28;5026543;28;20396;-60
2022/01/30 06:40:56;;;;;;;25.35;4.82;;;;;;;3.95;78.83;102867.97;5025649;28;20021;-60
2022/01/30 06:43:22;;;;;;;17.42;3.33;;;;;;;3.95;78.64;102875.28;5024693;28;20033;-60
2022/01/30 06:45:48;;;;;;;20.52;3.60;;;;;;;3.92;79.15;102870.13;5026174;28;20600;-60
2022/01/30 06:48:17;;;;;;;16.95;3.70;;;;;;;3.88;79.10;102883.13;5025795;28;20064;-60
2022/01/30 06:50:43;;;;;;;24.67;6.43;;;;;;;3.84;79.07;102884.38;5026403;28;20034;-60
2022/01/30 06:53:08;;;;;;;21.55;6.05;;;;;;;3.80;79.58;102891.09;5025365;28;20407;-60
2022/01/30 06:55:33;;;;;;;25.05;7.63;;;;;;;3.77;79.63;102894.09;5025621;28;20050;-60
2022/01/30 06:57:58;;;;;;;19.45;3.80;;;;;;;3.73;79.46;102900.78;5026236;28;20032;-61
2022/01/30 07:00:24;;;;;;;20.52;4.03;;;;;;;3.71;79.55;102903.66;5026074;28;20022;-60
2022/01/30 07:02:49;;;;;;;26.42;5.00;;;;;;;3.69;79.83;102904.78;5025460;28;20475;-60
2022/01/30 07:05:14;;;;;;;27.23;5.30;;;;;;;3.69;79.96;102907.50;5025882;28;20033;-60
2022/01/30 07:07:41;;;;;;;19.25;3.80;;;;;;;3.67;79.95;102914.94;5025573;28;20032;-60
2022/01/30 07:10:07;;;;;;;26.02;3.97;;;;;;;3.66;80.19;102918.66;5026640;28;20017;-60
2022/01/30 07:12:32;;;;;;;19.48;3.70;;;;;;;3.63;80.38;102920.63;5026130;28;20155;-60
2022/01/30 07:14:58;;;;;;;21.85;4.32;;;;;;;3.61;79.97;102919.91;5025486;28;20167;-60
2022/01/30 07:17:23;;;;;;;22.75;3.65;;;;;;;3.60;80.38;102920.91;5024752;28;20032;-60
2022/01/30 07:19:48;;;;;;;19.25;3.72;;;;;;;3.59;80.28;102927.31;5024662;28;20435;-60
2022/01/30 07:22:13;;;;;;;21.67;3.50;;;;;;;3.56;80.33;102926.75;5025991;28;20024;-60
2022/01/30 07:24:39;;;;;;;16.27;3.22;;;;;;;3.56;80.84;102922.16;5025669;28;20040;-60
2022/01/30 07:27:04;;;;;;;21.40;4.70;;;;;;;3.54;80.41;102921.41;5025649;28;20531;-60
2022/01/30 07:29:29;;;;;;;17.88;3.80;;;;;;;3.52;81.00;102917.13;5024998;28;20114;-60
2022/01/30 07:31:55;;;;;;;23.40;4.18;;;;;;;3.50;81.16;102922.69;5024683;28;20033;-60
2022/01/30 07:34:21;;;;;;;19.85;2.97;;;;;;;3.52;81.17;102928.84;5025741;28;20035;-62
2022/01/30 07:36:47;;;;;;;19.42;3.85;;;;;;;3.56;80.95;102940.31;5024645;28;20033;-62
2022/01/30 07:39:15;;;;;;;21.15;3.88;;;;;;;3.58;80.46;102932.88;5025705;28;20029;-62
2022/01/30 07:41:40;;;;;;;22.63;3.95;;;;;;;3.61;80.39;102944.38;5025627;28;20045;-60
2022/01/30 07:44:06;;;;;;;22.33;4.40;;;;;;;3.62;80.35;102946.06;5025679;28;20091;-60
2022/01/30 07:46:31;;;;;;;29.27;4.85;;;;;;;3.66;80.42;102951.25;5024400;28;20435;-60
2022/01/30 07:48:57;;;;;;;21.58;3.90;;;;;;;3.72;79.98;102956.16;5024600;28;20167;-60
2022/01/30 07:51:22;;;;;;;24.10;4.15;;;;;;;3.78;79.92;102961.03;5024594;28;20074;-60
2022/01/30 07:53:48;;;;;;;20.02;4.45;;;;;;;3.86;79.38;102955.81;5024547;28;20120;-60
2022/01/30 07:56:13;;;;;;;26.50;3.63;;;;;;;3.99;78.42;102958.28;5025210;28;20045;-60
2022/01/30 07:58:39;;;;;;;19.80;3.53;;;;;;;4.05;78.06;102953.16;5025252;28;20087;-60
2022/01/30 08:01:04;;;;;;;18.77;3.92;;;;;;;4.11;78.09;102958.06;5024024;28;20590;-60
2022/01/30 08:03:29;;;;;;;20.67;4.53;;;;;;;4.14;77.96;102963.22;5024209;28;20055;-60
2022/01/30 08:05:55;;;;;;;20.73;4.05;;;;;;;4.23;77.51;102960.69;5024881;28;20025;-63
2022/01/30 08:08:20;;;;;;;25.13;5.15;;;;;;;4.32;77.14;102963.44;5025307;28;20556;-60
2022/01/30 08:10:46;;;;;;;25.75;4.57;;;;;;;4.48;76.95;102959.34;5024403;28;20112;-60
2022/01/30 08:13:11;;;;;;;21.08;5.05;;;;;;;4.65;76.01;102973.13;5023954;28;20028;-60
2022/01/30 08:15:36;;;;;;;21.13;3.85;;;;;;;4.82;75.56;102966.16;5025085;28;20491;-60
2022/01/30 08:18:02;;;;;;;19.67;4.78;;;;;;;4.91;75.14;102978.03;5022222;28;20029;-60
2022/01/30 08:20:28;;;;;;;24.52;4.28;;;;;;;5.05;74.77;102974.91;5024709;28;20051;-61
2022/01/30 08:22:55;;;;;;;21.15;4.32;;;;;;;5.23;74.78;102968.78;5024815;28;20030;-60
2022/01/30 08:25:22;;;;;;;22.30;4.90;;;;;;;5.42;73.20;102982.38;5044285;28;20102;-60
2022/01/30 08:27:48;;;;;;;20.65;4.40;;;;;;;5.66;72.76;102979.19;5044148;28;20017;-61
2022/01/30 08:30:14;;;;;;;26.38;5.72;;;;;;;5.83;72.05;102973.00;5042611;28;20021;-61
2022/01/30 08:32:47;;;;;;;25.48;4.30;;;;;;;5.90;72.11;102962.34;5023401;28;20448;-61
2022/01/30 08:35:13;;;;;;;21.90;4.28;;;;;;;5.83;71.52;102967.53;5023773;28;20419;-63
2022/01/30 08:37:39;;;;;;;23.88;3.90;;;;;;;5.75;71.79;102975.59;5033117;28;20472;-61
2022/01/30 08:40:11;;;;;;;24.52;4.38;;;;;;;5.75;71.21;102974.72;5044526;28;20102;-61
2022/01/30 08:42:37;;;;;;;28.58;4.50;;;;;;;5.71;71.35;102983.19;5045050;28;20065;-61
2022/01/30 08:45:04;;;;;;;26.38;5.53;;;;;;;5.65;71.73;102980.19;5033855;28;20148;-60
2022/01/30 08:47:29;;;;;;;22.67;5.22;;;;;;;5.58;72.25;102982.66;5023758;28;20068;-60
2022/01/30 08:49:54;;;;;;;26.08;4.70;;;;;;;5.65;71.81;102985.66;5024235;28;20045;-60
2022/01/30 08:52:20;;;;;;;24.23;5.22;;;;;;;5.81;71.74;102990.50;5024099;28;20032;-61
2022/01/30 08:54:54;;;;;;;24.10;4.50;;;;;;;6.50;70.89;102993.75;5023742;28;20095;-61
2022/01/30 08:57:19;;;;;;;19.70;4.78;;;;;;;6.68;68.76;102980.13;5024377;28;20108;-61
2022/01/30 08:59:45;;;;;;;24.35;3.92;;;;;;;6.52;68.65;102982.66;5024000;28;20136;-62
2022/01/30 09:02:11;;;;;;;22.75;4.20;;;;;;;6.30;69.29;102983.91;5028863;28;20053;-61
2022/01/30 09:04:37;;;;;;;28.08;5.70;;;;;;;6.45;69.56;102990.59;5024767;28;20119;-61
2022/01/30 09:07:02;;;;;;;24.05;6.20;;;;;;;7.07;68.20;102985.31;5023726;28;20025;-61
2022/01/30 09:09:27;;;;;;;23.90;4.88;;;;;;;7.88;65.30;102987.03;5023884;28;20540;-61
2022/01/30 09:11:53;;;;;;;18.98;4.00;;;;;;;9.03;61.71;102992.06;5022327;28;20480;-60
2022/01/30 09:14:18;;;;;;;21.92;4.28;;;;;;;9.59;59.37;102984.91;5022984;28;20018;-61
2022/01/30 09:16:46;;;;;;;27.90;5.10;;;;;;;9.85;57.84;102996.56;5021599;28;20404;-61
2022/01/30 09:19:11;;;;;;;;;;;;;;;10.36;62.87;102997.16;5023424;28;20033;-62
2022/01/30 09:21:37;;;;;;;19.87;5.03;;;;;;;10.92;55.99;102991.59;5022594;28;19917;-61
2022/01/30 09:24:02;;;;;;;16.05;4.75;;;;;;;11.69;53.21;103005.28;5022430;28;20295;-61
2022/01/30 09:26:27;;;;;;;21.80;5.35;;;;;;;12.33;51.25;103004.88;5023590;28;20485;-68
2022/01/30 09:28:53;;;;;;;23.65;5.60;;;;;;;12.09;50.51;103003.22;5023038;28;20113;-62
2022/01/30 09:31:18;;;;;;;24.98;5.22;;;;;;;11.15;52.60;103010.84;5026295;28;20067;-62
2022/01/30 09:33:43;;;;;;;25.17;4.65;;;;;;;10.10;54.95;103011.09;5029416;28;20380;-61
2022/01/30 09:36:09;;;;;;;22.67;4.55;;;;;;;9.32;57.45;103019.84;5020658;28;20029;-61
2022/01/30 09:38:34;;;;;;;24.15;4.93;;;;;;;8.95;58.95;103016.69;5022417;28;20030;-63
2022/01/30 09:41:00;;;;;;;23.27;4.43;;;;;;;9.13;60.00;103022.06;5020542;28;20036;-62
2022/01/30 09:43:27;;;;;;;26.80;4.18;;;;;;;8.81;60.79;103030.00;5018745;28;20476;-62
2022/01/30 09:45:53;;;;;;;25.08;4.82;;;;;;;8.56;61.25;103022.69;5009056;28;20030;-62
2022/01/30 09:48:19;;;;;;;24.77;4.22;;;;;;;9.10;59.89;103023.25;5016190;28;20034;-63
2022/01/30 09:50:45;;;;;;;26.60;4.75;;;;;;;8.76;60.19;103032.38;5019299;28;20030;-63
2022/01/30 09:53:10;;;;;;;30.35;5.80;;;;;;;8.10;61.75;103040.38;5012436;28;20048;-63
2022/01/30 09:55:35;;;;;;;28.60;4.90;;;;;;;7.65;63.60;103036.78;5014694;28;20037;-63
2022/01/30 09:58:01;;;;;;;23.40;4.75;;;;;;;7.93;63.95;103034.78;5016162;28;20081;-63
2022/01/30 10:00:26;;;;;;;24.33;4.85;;;;;;;9.24;60.33;103036.31;5017472;28;20071;-60
2022/01/30 10:02:52;;;;;;;28.38;6.40;;;;;;;10.54;55.78;103032.66;5027131;28;20181;-61
2022/01/30 10:05:18;;;;;;;19.63;4.07;;;;;;;11.41;53.48;103038.88;5022344;28;20033;-70
2022/01/30 10:07:54;;;;;;;26.20;4.78;;;;;;;12.42;51.67;103043.16;5022316;28;20034;-63
2022/01/30 10:10:24;;;;;;;23.58;5.03;;;;;;;13.23;47.89;103040.44;5022116;28;20140;-62
2022/01/30 10:13:07;;;;;;;24.10;4.57;;;;;;;13.45;50.15;103050.44;5014480;28;20030;-63
2022/01/30 10:15:56;;;;;;;21.45;4.93;;;;;;;13.69;50.03;103062.16;5022670;28;20028;-63
2022/01/30 10:18:23;;;;;;;22.45;4.47;;;;;;;14.25;45.95;103056.69;5019892;28;20034;-63
2022/01/30 10:20:49;;;;;;;32.30;6.35;;;;;;;14.90;44.05;103063.72;5020255;28;20028;-62
2022/01/30 10:23:15;;;;;;;15.60;4.10;;;;;;;14.96;43.82;103062.03;5017274;28;20025;-62
2022/01/30 10:25:46;;;;;;;24.75;4.43;;;;;;;14.91;44.45;103053.50;5017999;28;20330;-62
2022/01/30 10:28:27;;;;;;;20.77;4.93;;;;;;;14.98;44.86;103058.00;5024384;28;20025;-62
2022/01/30 10:30:56;;;;;;;21.20;4.20;;;;;;;14.89;43.14;103059.22;5024910;28;20026;-62
2022/01/30 10:33:36;;;;;;;29.08;4.85;;;;;;;14.98;42.74;103058.00;5025153;28;20030;-62
2022/01/30 10:36:03;;;;;;;20.52;3.78;;;;;;;15.01;42.47;103063.13;5024310;28;20515;-63
2022/01/30 10:38:36;;;;;;;23.35;4.55;;;;;;;15.29;42.03;103057.47;5025725;28;20488;-63
2022/01/30 10:41:30;;;;;;;21.85;4.65;;;;;;;15.63;41.42;103057.56;5024439;28;20099;-63
2022/01/30 10:43:57;;;;;;;18.83;3.65;;;;;;;15.87;41.08;103050.59;5024903;28;20501;-63
2022/01/30 10:46:39;;;;;;;24.80;4.38;;;;;;;16.14;41.75;103051.44;5024741;28;20032;-63
2022/01/30 10:49:11;;;;;;;24.33;4.28;;;;;;;16.13;40.80;103056.13;5016794;28;20695;-63
2022/01/30 10:51:37;;;;;;;20.45;4.38;;;;;;;16.09;40.88;103052.94;5021155;28;20480;-62
2022/01/30 10:54:07;;;;;;;22.13;4.38;;;;;;;16.27;40.24;103054.19;5020226;28;20031;-62
2022/01/30 10:56:35;;;;;;;21.45;4.95;;;;;;;16.32;39.90;103054.38;5015715;28;20057;-63
2022/01/30 10:59:13;;;;;;;22.02;4.00;;;;;;;16.28;40.32;103051.22;5017733;28;20029;-63
2022/01/30 11:01:42;;;;;;;21.85;4.22;;;;;;;16.31;39.81;103047.16;5022039;28;20044;-63
2022/01/30 11:04:20;;;;;;;19.33;4.60;;;;;;;16.69;40.97;103043.66;5024053;28;20442;-62
2022/01/30 11:06:46;;;;;;;23.42;5.05;;;;;;;16.99;38.94;103031.00;5022963;28;20032;-62
2022/01/30 11:09:14;;;;;;;22.75;5.22;;;;;;;16.85;38.76;103034.88;5039633;28;20029;-63
2022/01/30 11:11:44;;;;;;;22.42;4.93;;;;;;;16.32;39.78;103034.97;5024094;28;20037;-63
2022/01/30 11:19:21;;;;;;;24.35;4.63;;;;;;;14.71;42.99;103026.59;5024777;28;20044;-62
2022/01/30 11:21:57;;;;;;;20.70;3.70;;;;;;;14.21;42.50;103027.75;5024276;28;20021;-62
2022/01/30 11:24:24;;;;;;;25.85;4.80;;;;;;;13.77;44.63;103024.19;5024492;28;20131;-62
2022/01/30 11:26:51;;;;;;;21.80;4.43;;;;;;;13.70;44.06;103015.00;5022924;28;20495;-63
2022/01/30 11:29:19;;;;;;;25.08;4.47;;;;;;;14.53;44.02;103013.31;5023882;28;20537;-62
2022/01/30 11:31:44;;;;;;;19.05;4.60;;;;;;;15.22;39.71;103008.69;5022637;28;20030;-62
2022/01/30 11:34:10;;;;;;;21.60;4.53;;;;;;;15.63;39.04;103011.34;5024517;28;20025;-62
2022/01/30 11:36:40;;;;;;;21.15;4.45;;;;;;;15.99;39.21;103013.69;5022663;28;20407;-62
2022/01/30 11:39:07;;;;;;;22.48;4.35;;;;;;;16.13;39.21;103003.47;5024427;28;20164;-63
2022/01/30 11:41:35;;;;;;;20.27;3.90;;;;;;;15.46;40.35;103002.56;5023286;28;20496;-63
2022/01/30 11:44:18;;;;;;;21.97;4.43;;;;;;;15.47;41.52;103009.81;5023519;28;20030;-63
2022/01/30 11:47:04;;;;;;;22.00;3.97;;;;;;;14.42;43.23;103013.00;5003097;28;20029;-63
2022/01/30 11:49:50;;;;;;;19.65;4.63;;;;;;;12.90;44.12;103020.69;4993892;28;20093;-63
2022/01/30 11:52:18;;;;;;;20.85;4.25;;;;;;;11.63;48.29;103009.66;5007608;28;20034;-63
2022/01/30 11:54:43;;;;;;;18.73;4.43;;;;;;;12.16;45.54;103005.03;4988670;28;1018494;-63
2022/01/30 11:57:20;;;;;;;23.90;4.43;;;;;;;11.83;46.58;103010.03;5024174;28;20030;-63
2022/01/30 11:59:47;;;;;;;20.73;4.50;;;;;;;12.60;47.02;103000.56;5024103;28;20045;-63
2022/01/30 12:02:35;;;;;;;24.25;5.00;;;;;;;12.52;48.10;103007.06;5024325;28;20033;-63
2022/01/30 12:05:04;;;;;;;17.25;4.10;;;;;;;12.62;46.55;102999.34;5024069;28;20030;-63
2022/01/30 12:07:34;;;;;;;25.88;4.88;;;;;;;12.44;47.03;103007.16;5022600;28;20428;-63
2022/01/30 12:12:56;;;;;;;26.50;4.07;;;;;;;12.40;48.64;103001.16;5023228;28;20037;-63
2022/01/30 12:15:44;;;;;;;28.98;4.50;;;;;;;13.02;47.22;102998.97;5021413;28;20064;-63
2022/01/30 12:18:10;;;;;;;;;;;;;;;12.73;48.51;103003.53;5021801;28;20129;-63
2022/01/30 12:21:04;;;;;;;19.60;4.93;;;;;;;12.00;49.27;103010.72;5023784;28;19979;-63